Greenwich, United Kingdom
Current Conditions -  °F | °C
As of 11:20 AM on Sunday 21 Dec 2014 (Local Time) from EGLC Reporting Station
Broken Clouds Broken Clouds  
Wind Chill: 50°   Ceiling: 3000
Heat Index: 50°   Visibility: 6mi
Dew Point: 41°   Wind: 20mph
Humidity: 71%   Direction: 250°WSW
Pressure: 30.33"   Gusts: NA
Location:  51.48°N, 0.01°W
Report Text: EGLC 211120Z AUTO 25017KT 9999 SCT024/// BKN030/// 10/05 Q1027
Loading
Personal Weather Stations






























Interactive Weather Map New forecast layout! Learn more

10-Day Weather Forecast

Advertisements
Track Severe Weather on mobile